createdAt,value
2022-09-23T00:01:04.785Z,2.20
2022-09-23T00:03:33.499Z,3.80
2022-09-23T00:06:02.497Z,3.88
2022-09-23T00:08:30.733Z,5.10
2022-09-23T00:11:05.590Z,3.67
2022-09-23T00:13:33.181Z,2.33
2022-09-23T00:16:04.240Z,2.17
2022-09-23T00:18:31.074Z,2.28
2022-09-23T00:20:57.894Z,2.58
2022-09-23T00:23:24.800Z,4.80
2022-09-23T00:26:05.962Z,2.38
2022-09-23T00:28:33.335Z,3.42
2022-09-23T00:31:07.500Z,2.63
2022-09-23T00:33:35.039Z,2.50
2022-09-23T00:36:04.230Z,2.95
2022-09-23T00:38:31.534Z,2.50
2022-09-23T00:40:58.752Z,2.60
2022-09-23T00:43:37.996Z,2.53
2022-09-23T00:46:06.895Z,2.88
2022-09-23T00:48:35.951Z,3.40
2022-09-23T00:51:02.859Z,3.80
2022-09-23T00:53:29.683Z,2.65
2022-09-23T00:56:02.939Z,2.85
2022-09-23T00:58:33.228Z,3.17
2022-09-23T01:01:01.707Z,3.13
2022-09-23T01:03:32.312Z,3.25
2022-09-23T01:06:00.039Z,4.50
2022-09-23T01:08:28.295Z,3.47
2022-09-23T01:11:14.919Z,3.05
2022-09-23T01:14:01.443Z,3.55
2022-09-23T01:16:36.544Z,3.53
2022-09-23T01:19:22.488Z,3.83
2022-09-23T01:21:58.353Z,3.13
2022-09-23T01:24:36.080Z,3.30
2022-09-23T01:27:13.371Z,5.57
2022-09-23T01:29:59.939Z,4.32
2022-09-23T01:32:47.306Z,3.33
2022-09-23T01:35:27.515Z,3.38
2022-09-23T01:38:13.575Z,3.72
2022-09-23T01:40:52.836Z,3.40
2022-09-23T01:43:32.706Z,3.53
2022-09-23T01:46:01.835Z,10.10
2022-09-23T01:48:38.003Z,6.10
2022-09-23T01:51:12.580Z,4.55
2022-09-23T01:53:53.501Z,2.97
2022-09-23T01:56:28.310Z,3.30
2022-09-23T01:59:06.759Z,3.67
2022-09-23T02:01:41.880Z,3.38
2022-09-23T02:04:17.700Z,4.93
2022-09-23T02:06:51.826Z,4.47
2022-09-23T02:09:25.255Z,4.22
2022-09-23T02:12:04.981Z,3.35
2022-09-23T02:14:39.199Z,4.40
2022-09-23T02:17:13.441Z,4.03
2022-09-23T02:19:48.119Z,3.75
2022-09-23T02:22:19.576Z,3.80
2022-09-23T02:24:46.717Z,8.57
2022-09-23T02:27:26.854Z,6.00
2022-09-23T02:30:03.290Z,4.07
2022-09-23T02:32:48.595Z,3.78
2022-09-23T02:35:33.434Z,4.45
2022-09-23T02:38:18.455Z,3.75
2022-09-23T02:40:59.209Z,3.78
2022-09-23T02:43:39.625Z,6.20
2022-09-23T02:46:07.771Z,5.30
2022-09-23T02:48:41.521Z,4.53
2022-09-23T02:51:10.541Z,3.72
2022-09-23T02:53:38.182Z,3.90
2022-09-23T02:56:16.785Z,3.80
2022-09-23T02:58:44.364Z,3.47
2022-09-23T03:01:22.291Z,4.00
2022-09-23T03:03:57.490Z,5.53
2022-09-23T03:06:32.604Z,5.90
2022-09-23T03:09:11.755Z,4.28
2022-09-23T03:11:43.985Z,4.53
2022-09-23T03:14:22.443Z,3.80
2022-09-23T03:16:56.950Z,3.65
2022-09-23T03:19:34.321Z,4.18
2022-09-23T03:22:18.720Z,5.82
2022-09-23T03:24:51.827Z,4.63
2022-09-23T03:27:26.946Z,4.45
2022-09-23T03:29:55.079Z,4.30
2022-09-23T03:32:25.381Z,4.15
2022-09-23T03:34:55.785Z,4.57
2022-09-23T03:37:30.550Z,4.32
2022-09-23T03:40:09.493Z,8.88
2022-09-23T03:42:38.006Z,5.60
2022-09-23T03:45:13.581Z,4.07
2022-09-23T03:47:40.670Z,4.70
2022-09-23T03:50:08.696Z,4.32
2022-09-23T03:52:39.974Z,4.10
2022-09-23T03:55:11.520Z,4.85
2022-09-23T03:57:39.048Z,3.95
2022-09-23T04:00:07.680Z,4.95
2022-09-23T04:02:35.550Z,4.22
2022-09-23T04:05:02.860Z,4.15
2022-09-23T04:07:29.764Z,4.32
2022-09-23T04:10:00.175Z,4.40
2022-09-23T04:12:29.334Z,3.88
2022-09-23T04:14:56.186Z,4.82
2022-09-23T04:17:23.320Z,5.47
2022-09-23T04:19:50.785Z,6.53
2022-09-23T04:22:20.040Z,5.03
2022-09-23T04:24:47.214Z,4.88
2022-09-23T04:27:14.140Z,4.30
2022-09-23T04:29:41.815Z,4.15
2022-09-23T04:32:08.920Z,4.88
2022-09-23T04:34:35.845Z,4.07
2022-09-23T04:37:03.012Z,9.70
2022-09-23T04:39:30.220Z,5.40
2022-09-23T04:41:57.125Z,4.15
2022-09-23T04:44:28.311Z,4.47
2022-09-23T04:46:57.108Z,4.43
2022-09-23T04:49:24.144Z,4.53
2022-09-23T04:51:51.087Z,4.22
2022-09-23T04:54:18.561Z,6.63
2022-09-23T04:56:50.166Z,5.43
2022-09-23T04:59:17.091Z,4.60
2022-09-23T05:01:44.663Z,4.45
2022-09-23T05:04:17.116Z,4.72
2022-09-23T05:06:46.275Z,4.40
2022-09-23T05:09:18.515Z,4.65
2022-09-23T05:11:46.329Z,5.75
2022-09-23T05:14:16.420Z,4.80
2022-09-23T05:16:43.709Z,5.80
2022-09-23T05:19:13.944Z,4.28
2022-09-23T05:21:41.075Z,4.38
2022-09-23T05:24:09.454Z,3.63
2022-09-23T05:26:36.640Z,3.28
2022-09-23T05:29:06.184Z,3.28
2022-09-23T05:31:36.821Z,10.70
2022-09-23T05:34:11.050Z,3.67
2022-09-23T05:36:40.118Z,3.20
2022-09-23T05:39:09.129Z,3.28
2022-09-23T05:41:38.455Z,2.80
2022-09-23T05:44:10.853Z,2.72
2022-09-23T05:46:40.489Z,3.13
2022-09-23T05:49:09.080Z,2.80
2022-09-23T05:51:37.365Z,3.65
2022-09-23T05:54:08.041Z,3.38
2022-09-23T05:56:46.057Z,3.40
2022-09-23T05:59:29.585Z,3.35
2022-09-23T06:01:57.196Z,3.50
2022-09-23T06:04:36.928Z,4.50
2022-09-23T06:07:21.653Z,3.72
2022-09-23T06:09:48.687Z,4.00
2022-09-23T06:12:18.780Z,3.97
2022-09-23T06:14:49.665Z,3.88
2022-09-23T06:17:25.535Z,4.22
2022-09-23T06:19:52.405Z,4.20
2022-09-23T06:22:24.671Z,4.43
2022-09-23T06:25:03.483Z,4.55
2022-09-23T06:27:30.338Z,4.28
2022-09-23T06:30:06.766Z,4.30
2022-09-23T06:32:52.286Z,4.05
2022-09-23T06:35:27.444Z,4.10
2022-09-23T06:38:05.830Z,4.03
2022-09-23T06:40:37.948Z,4.15
2022-09-23T06:43:04.943Z,4.78
2022-09-23T06:45:46.546Z,4.88
2022-09-23T06:48:13.562Z,4.28
2022-09-23T06:50:43.478Z,4.88
2022-09-23T06:53:10.356Z,5.40
2022-09-23T06:55:48.659Z,5.30
2022-09-23T06:58:32.894Z,5.80
2022-09-23T07:01:18.324Z,7.50
2022-09-23T07:06:51.967Z,6.05
2022-09-23T07:09:19.235Z,5.72
2022-09-23T07:11:52.327Z,6.05
2022-09-23T07:17:14.232Z,7.10
2022-09-23T07:19:41.189Z,6.43
2022-09-23T07:22:11.807Z,7.05
2022-09-23T07:24:43.970Z,9.30
2022-09-23T07:27:16.630Z,7.97
2022-09-23T07:29:48.407Z,6.85
2022-09-23T07:32:41.513Z,7.32
2022-09-23T07:35:12.035Z,7.70
2022-09-23T07:37:58.458Z,6.80
2022-09-23T07:40:25.415Z,7.60
2022-09-23T07:42:52.366Z,7.82
2022-09-23T07:45:23.695Z,7.90
2022-09-23T07:47:50.744Z,7.55
2022-09-23T07:50:19.307Z,7.53
2022-09-23T07:53:16.836Z,7.65
2022-09-23T07:55:43.822Z,8.45
2022-09-23T07:58:10.900Z,8.73
2022-09-23T08:00:53.444Z,8.68
2022-09-23T08:03:59.264Z,8.50
2022-09-23T08:06:41.171Z,7.75
2022-09-23T08:09:30.626Z,9.60
2022-09-23T08:12:03.295Z,8.85
2022-09-23T08:14:54.394Z,8.75
2022-09-23T08:17:30.061Z,11.32
2022-09-23T08:19:57.642Z,9.98
2022-09-23T08:22:25.031Z,10.25
2022-09-23T08:24:53.123Z,10.38
2022-09-23T08:27:22.515Z,11.15
2022-09-23T08:29:50.777Z,12.52
2022-09-23T08:32:18.120Z,11.95
2022-09-23T08:34:45.370Z,11.45
2022-09-23T08:37:12.587Z,10.93
2022-09-23T08:39:39.580Z,11.27
2022-09-23T08:42:17.402Z,10.90
2022-09-23T08:44:49.459Z,10.25
2022-09-23T08:47:23.952Z,9.95
2022-09-23T08:50:01.820Z,9.35
2022-09-23T08:52:51.342Z,9.88
2022-09-23T08:55:19.953Z,9.52
2022-09-23T08:58:23.432Z,10.32
2022-09-23T09:00:48.101Z,10.40
2022-09-23T09:03:27.191Z,10.55
2022-09-23T09:05:57.077Z,10.20
2022-09-23T09:08:31.618Z,10.48
2022-09-23T09:11:00.131Z,11.60
2022-09-23T09:13:33.810Z,11.23
2022-09-23T09:16:11.816Z,11.00
2022-09-23T09:18:53.640Z,11.75
2022-09-23T09:21:26.889Z,10.32
2022-09-23T09:23:56.920Z,11.38
2022-09-23T09:26:27.627Z,10.63
2022-09-23T09:29:33.805Z,17.48
2022-09-23T09:31:58.398Z,11.38
2022-09-23T09:34:42.261Z,23.55
2022-09-23T09:37:15.792Z,10.80
2022-09-23T09:39:42.906Z,10.48
2022-09-23T09:42:21.751Z,12.45
2022-09-23T09:44:53.122Z,12.57
2022-09-23T09:47:31.260Z,11.98
2022-09-23T09:50:13.392Z,12.43
2022-09-23T09:55:16.951Z,11.20
2022-09-23T09:57:55.845Z,9.48
2022-09-23T10:00:26.187Z,9.65
2022-09-23T10:03:00.496Z,9.57
2022-09-23T10:05:33.972Z,9.57
2022-09-23T10:08:21.990Z,10.43
2022-09-23T10:11:00.535Z,9.88
2022-09-23T10:13:29.803Z,8.95
2022-09-23T10:16:00.159Z,8.70
2022-09-23T10:18:28.686Z,9.30
2022-09-23T10:21:08.580Z,8.18
2022-09-23T10:23:41.945Z,8.10
2022-09-23T10:26:24.316Z,6.93
2022-09-23T10:28:53.906Z,6.30
2022-09-23T10:31:25.521Z,6.18
2022-09-23T10:33:55.060Z,5.65
2022-09-23T10:36:22.451Z,5.00
2022-09-23T10:38:55.483Z,4.53
2022-09-23T10:41:45.685Z,3.78
2022-09-23T10:44:40.479Z,4.45
2022-09-23T10:47:18.097Z,5.07
2022-09-23T10:50:08.287Z,5.53
2022-09-23T10:52:49.847Z,5.20
2022-09-23T10:55:26.740Z,4.53
2022-09-23T10:58:12.627Z,3.67
2022-09-23T11:00:58.710Z,3.35
2022-09-23T11:03:54.676Z,3.35
2022-09-23T11:06:40.567Z,2.97
2022-09-23T11:09:24.837Z,1.88
2022-09-23T11:12:02.170Z,2.40
2022-09-23T11:14:31.335Z,3.72
2022-09-23T11:17:15.039Z,5.82
2022-09-23T11:20:01.663Z,9.80
2022-09-23T11:22:47.722Z,3.55
2022-09-23T11:25:18.509Z,3.35
2022-09-23T11:27:58.213Z,3.17
2022-09-23T11:30:38.913Z,3.92
2022-09-23T11:33:21.319Z,2.72
2022-09-23T11:35:56.120Z,2.95
2022-09-23T11:38:30.346Z,2.85
2022-09-23T11:41:02.756Z,2.30
2022-09-23T11:43:39.721Z,2.90
2022-09-23T11:46:17.988Z,7.57
2022-09-23T11:49:02.555Z,3.38
2022-09-23T11:51:37.173Z,3.00
2022-09-23T11:54:20.944Z,5.40
2022-09-23T11:56:54.213Z,2.78
2022-09-23T11:59:39.189Z,2.20
2022-09-23T12:02:30.818Z,4.63
2022-09-23T12:05:05.426Z,1.85
2022-09-23T12:07:56.332Z,1.77
2022-09-23T12:10:38.784Z,1.17
2022-09-23T12:13:16.522Z,4.72
2022-09-23T12:15:53.063Z,1.17
2022-09-23T12:18:26.836Z,1.70
2022-09-23T12:21:32.747Z,2.55
2022-09-23T12:24:19.293Z,1.40
2022-09-23T12:26:53.666Z,1.40
2022-09-23T12:29:21.494Z,1.10
2022-09-23T12:31:50.325Z,1.40
2022-09-23T12:34:24.907Z,0.77
2022-09-23T12:36:52.279Z,1.60
2022-09-23T12:39:32.089Z,1.13
2022-09-23T12:42:02.779Z,0.80
2022-09-23T12:44:38.036Z,0.80
2022-09-23T12:47:30.095Z,0.70
2022-09-23T12:49:57.597Z,0.90
2022-09-23T12:52:26.646Z,0.90
2022-09-23T12:55:13.870Z,1.35
2022-09-23T12:57:42.072Z,3.35
2022-09-23T13:00:12.774Z,2.53
2022-09-23T13:03:10.393Z,1.88
2022-09-23T13:05:56.709Z,1.50
2022-09-23T13:08:25.734Z,1.88
2022-09-23T13:10:58.941Z,2.05
2022-09-23T13:13:36.040Z,2.20
2022-09-23T13:16:15.807Z,2.63
2022-09-23T13:18:55.137Z,2.67
2022-09-23T13:21:42.644Z,2.58
2022-09-23T13:24:22.005Z,2.95
2022-09-23T13:27:03.619Z,3.20
2022-09-23T13:29:41.598Z,2.93
2022-09-23T13:32:15.643Z,2.88
2022-09-23T13:34:47.052Z,2.42
2022-09-23T13:37:26.417Z,7.18
2022-09-23T13:40:10.758Z,3.58
2022-09-23T13:42:44.571Z,3.05
2022-09-23T13:45:19.774Z,2.45
2022-09-23T13:47:49.437Z,2.45
2022-09-23T13:50:22.665Z,1.67
2022-09-23T13:52:55.393Z,2.28
2022-09-23T13:57:59.191Z,2.28
2022-09-23T14:00:27.479Z,1.88
2022-09-23T14:02:54.572Z,2.85
2022-09-23T14:05:24.460Z,2.67
2022-09-23T14:07:53.274Z,1.90
2022-09-23T14:10:23.949Z,1.85
2022-09-23T14:12:53.382Z,1.95
2022-09-23T14:15:21.759Z,1.73
2022-09-23T14:18:03.689Z,2.17
2022-09-23T14:20:30.956Z,2.55
2022-09-23T14:23:11.402Z,4.43
2022-09-23T14:25:39.635Z,1.80
2022-09-23T14:30:49.058Z,1.42
2022-09-23T14:33:23.091Z,1.65
2022-09-23T14:35:55.000Z,1.55
2022-09-23T14:38:34.833Z,2.17
2022-09-23T14:41:18.011Z,2.10
2022-09-23T14:44:00.909Z,2.55
2022-09-23T14:49:00.221Z,3.15
2022-09-23T14:51:47.527Z,2.50
2022-09-23T14:54:26.104Z,3.72
2022-09-23T14:56:55.568Z,2.22
2022-09-23T14:59:36.199Z,2.00
2022-09-23T15:02:33.103Z,2.40
2022-09-23T15:05:15.000Z,2.67
2022-09-23T15:07:44.843Z,2.80
2022-09-23T15:10:23.870Z,2.70
2022-09-23T15:12:53.164Z,2.85
2022-09-23T15:15:28.366Z,2.80
2022-09-23T15:17:56.113Z,2.35
2022-09-23T15:20:27.368Z,3.15
2022-09-23T15:22:56.199Z,3.33
2022-09-23T15:25:33.192Z,2.78
2022-09-23T15:28:16.939Z,3.08
2022-09-23T15:30:44.320Z,3.35
2022-09-23T15:33:15.231Z,3.50
2022-09-23T15:35:47.898Z,3.83
2022-09-23T15:40:45.263Z,3.28
2022-09-23T15:43:20.488Z,3.88
2022-09-23T15:45:57.487Z,7.53
2022-09-23T15:48:29.448Z,3.72
2022-09-23T15:50:56.750Z,3.65
2022-09-23T15:53:27.374Z,3.72
2022-09-23T15:55:54.806Z,3.60
2022-09-23T15:58:24.129Z,3.90
2022-09-23T16:00:56.567Z,4.47
2022-09-23T16:03:28.975Z,3.53
2022-09-23T16:06:00.449Z,4.25
2022-09-23T16:08:29.177Z,4.47
2022-09-23T16:10:57.122Z,3.13
2022-09-23T16:13:26.943Z,3.10
2022-09-23T16:15:54.972Z,2.80
2022-09-23T16:18:22.272Z,2.80
2022-09-23T16:20:52.266Z,2.17
2022-09-23T16:23:37.840Z,2.20
2022-09-23T16:26:11.674Z,2.38
2022-09-23T16:28:39.246Z,2.20
2022-09-23T16:31:06.638Z,2.20
2022-09-23T16:33:34.066Z,1.83
2022-09-23T16:36:05.822Z,2.10
2022-09-23T16:38:35.023Z,2.53
2022-09-23T16:41:03.510Z,1.73
2022-09-23T16:43:33.701Z,1.63
2022-09-23T16:46:01.599Z,1.70
2022-09-23T16:48:28.946Z,1.20
2022-09-23T16:50:56.164Z,1.95
2022-09-23T16:53:24.169Z,1.75
2022-09-23T16:55:53.757Z,2.90
2022-09-23T16:58:21.500Z,2.25
2022-09-23T17:00:58.561Z,2.72
2022-09-23T17:03:35.873Z,2.10
2022-09-23T17:06:07.936Z,2.03
2022-09-23T17:08:35.898Z,1.38
2022-09-23T17:11:03.556Z,1.42
2022-09-23T17:13:31.656Z,1.00
2022-09-23T17:15:59.604Z,0.85
2022-09-23T17:18:28.138Z,0.70
2022-09-23T17:20:59.905Z,1.05
2022-09-23T17:23:28.707Z,0.90
2022-09-23T17:25:56.340Z,0.80
2022-09-23T17:28:24.156Z,0.60
2022-09-23T17:30:58.163Z,0.73
2022-09-23T17:33:26.511Z,0.52
2022-09-23T17:35:54.857Z,0.57
2022-09-23T17:38:28.827Z,0.47
2022-09-23T17:40:59.477Z,0.63
2022-09-23T17:43:27.644Z,0.50
2022-09-23T17:45:58.433Z,0.60
2022-09-23T17:48:26.542Z,0.75
2022-09-23T17:50:58.260Z,1.25
2022-09-23T17:53:26.513Z,2.28
2022-09-23T17:55:56.283Z,2.60
2022-09-23T17:58:25.945Z,0.90
2022-09-23T18:00:53.418Z,0.70
2022-09-23T18:03:20.688Z,0.68
2022-09-23T18:05:47.838Z,0.68
2022-09-23T18:08:14.947Z,0.60
2022-09-23T18:10:42.410Z,0.70
2022-09-23T18:13:12.361Z,0.93
2022-09-23T18:15:40.626Z,0.65
2022-09-23T18:18:08.296Z,0.98
2022-09-23T18:20:35.615Z,0.57
2022-09-23T18:23:02.764Z,1.00
2022-09-23T18:25:39.232Z,1.20
2022-09-23T18:28:07.196Z,0.60
2022-09-23T18:30:34.335Z,0.98
2022-09-23T18:33:02.464Z,0.90
2022-09-23T18:35:32.766Z,1.00
2022-09-23T18:37:59.907Z,1.00
2022-09-23T18:40:27.165Z,1.27
2022-09-23T18:42:54.398Z,1.48
2022-09-23T18:45:21.840Z,1.10
2022-09-23T18:47:59.225Z,1.10
2022-09-23T18:50:36.421Z,1.45
2022-09-23T18:53:03.707Z,0.90
2022-09-23T18:55:34.896Z,0.82
2022-09-23T18:58:03.185Z,1.13
2022-09-23T19:00:30.549Z,1.00
2022-09-23T19:02:57.993Z,1.33
2022-09-23T19:05:25.307Z,1.70
2022-09-23T19:07:52.474Z,0.90
2022-09-23T19:10:19.574Z,1.20
2022-09-23T19:12:46.986Z,0.95
2022-09-23T19:15:14.527Z,1.27
2022-09-23T19:17:41.832Z,1.20
2022-09-23T19:20:10.500Z,1.13
2022-09-23T19:22:37.660Z,0.80
2022-09-23T19:25:05.573Z,1.20
2022-09-23T19:27:33.579Z,0.73
2022-09-23T19:30:01.032Z,1.00
2022-09-23T19:32:28.514Z,1.00
2022-09-23T19:34:55.810Z,0.90
2022-09-23T19:37:23.393Z,0.85
2022-09-23T19:39:53.156Z,0.77
2022-09-23T19:42:20.254Z,0.90
2022-09-23T19:44:47.312Z,1.25
2022-09-23T19:47:17.717Z,0.98
2022-09-23T19:49:45.139Z,0.98
2022-09-23T19:52:12.360Z,1.40
2022-09-23T19:54:41.935Z,1.05
2022-09-23T19:57:10.161Z,1.20
2022-09-23T19:59:38.941Z,1.10
2022-09-23T20:02:06.302Z,1.10
2022-09-23T20:04:33.818Z,2.53
2022-09-23T20:07:03.212Z,1.38
2022-09-23T20:09:35.158Z,2.40
2022-09-23T20:12:05.396Z,2.80
2022-09-23T20:14:32.887Z,1.52
2022-09-23T20:17:01.512Z,3.30
2022-09-23T20:19:29.034Z,1.40
2022-09-23T20:22:05.695Z,1.23
2022-09-23T20:24:32.853Z,1.00
2022-09-23T20:27:11.451Z,0.93
2022-09-23T20:29:38.642Z,1.00
2022-09-23T20:32:06.395Z,1.75
2022-09-23T20:34:34.062Z,1.15
2022-09-23T20:37:01.637Z,0.98
2022-09-23T20:42:14.273Z,2.03
2022-09-23T20:44:43.634Z,1.83
2022-09-23T20:47:14.393Z,1.48
2022-09-23T20:49:44.067Z,1.45
2022-09-23T20:52:14.141Z,1.30
2022-09-23T20:54:42.472Z,1.33
2022-09-23T20:57:12.328Z,1.30
2022-09-23T20:59:41.571Z,1.20
2022-09-23T21:02:10.263Z,1.25
2022-09-23T21:04:37.462Z,0.90
2022-09-23T21:07:04.670Z,1.27
2022-09-23T21:09:31.922Z,0.98
2022-09-23T21:11:59.233Z,1.10
2022-09-23T21:14:26.344Z,1.15
2022-09-23T21:16:55.067Z,0.90
2022-09-23T21:19:23.075Z,0.90
2022-09-23T21:21:50.193Z,1.00
2022-09-23T21:24:45.635Z,0.90
2022-09-23T21:27:05.013Z,0.98
2022-09-23T21:29:32.234Z,0.90
2022-09-23T21:31:59.375Z,0.80
2022-09-23T21:34:28.503Z,0.75
2022-09-23T21:36:55.862Z,1.08
2022-09-23T21:39:23.065Z,0.90
2022-09-23T21:41:51.905Z,1.02
2022-09-23T21:44:18.994Z,0.65
2022-09-23T21:46:46.140Z,0.65
2022-09-23T21:49:13.774Z,1.20
2022-09-23T21:51:41.601Z,1.58
2022-09-23T21:54:14.626Z,0.68
2022-09-23T21:56:43.106Z,0.80
2022-09-23T21:59:10.893Z,0.82
2022-09-23T22:01:41.746Z,0.80
2022-09-23T22:04:15.706Z,0.60
2022-09-23T22:06:43.570Z,0.60
2022-09-23T22:09:15.020Z,0.50
2022-09-23T22:11:52.112Z,0.63
2022-09-23T22:14:21.871Z,0.70
2022-09-23T22:16:49.021Z,0.80
2022-09-23T22:19:16.353Z,0.73
2022-09-23T22:21:45.596Z,0.73
2022-09-23T22:24:13.663Z,0.70
2022-09-23T22:26:43.473Z,0.50
2022-09-23T22:29:22.943Z,0.70
2022-09-23T22:32:00.201Z,0.70
2022-09-23T22:34:48.436Z,0.50
2022-09-23T22:37:18.305Z,1.70
2022-09-23T22:39:45.563Z,0.60
2022-09-23T22:42:13.462Z,0.55
2022-09-23T22:44:40.733Z,0.82
2022-09-23T22:47:10.013Z,0.77
2022-09-23T22:49:38.315Z,0.50
2022-09-23T22:52:08.400Z,0.50
2022-09-23T22:54:37.841Z,0.50
2022-09-23T22:57:06.646Z,0.50
2022-09-23T22:59:35.320Z,0.50
2022-09-23T23:02:03.642Z,0.50
2022-09-23T23:04:31.332Z,0.60
2022-09-23T23:06:59.070Z,0.43
2022-09-23T23:09:26.650Z,0.55
2022-09-23T23:11:54.470Z,0.50
2022-09-23T23:14:22.451Z,0.57
2022-09-23T23:16:49.999Z,0.50
2022-09-23T23:19:19.574Z,0.95
2022-09-23T23:21:47.135Z,0.70
2022-09-23T23:24:17.492Z,0.40
2022-09-23T23:26:45.547Z,0.60
2022-09-23T23:29:15.136Z,0.32
2022-09-23T23:31:42.690Z,0.30
2022-09-23T23:34:20.006Z,0.30
2022-09-23T23:36:55.416Z,0.20
2022-09-23T23:39:25.037Z,0.20
2022-09-23T23:41:55.217Z,0.32
2022-09-23T23:44:24.192Z,0.40
2022-09-23T23:46:52.011Z,0.45
2022-09-23T23:49:20.012Z,0.50
2022-09-23T23:51:48.212Z,0.65
2022-09-23T23:54:15.664Z,0.40
2022-09-23T23:56:43.384Z,0.40
2022-09-23T23:59:10.510Z,0.77
